createdAt,value
2022-12-01T00:00:40.722Z,5.00
2022-12-01T00:03:10.658Z,4.07
2022-12-01T00:05:41.047Z,2.95
2022-12-01T00:08:10.363Z,3.53
2022-12-01T00:10:39.612Z,3.42
2022-12-01T00:13:09.938Z,3.25
2022-12-01T00:15:40.706Z,3.28
2022-12-01T00:18:11.695Z,3.60
2022-12-01T00:20:42.079Z,3.63
2022-12-01T00:23:11.585Z,3.38
2022-12-01T00:25:40.903Z,3.10
2022-12-01T00:28:10.493Z,3.03
2022-12-01T00:30:40.921Z,3.92
2022-12-01T00:33:09.780Z,3.22
2022-12-01T00:35:39.023Z,4.35
2022-12-01T00:38:08.122Z,3.60
2022-12-01T00:40:41.325Z,3.30
2022-12-01T00:43:10.926Z,3.88
2022-12-01T00:45:41.623Z,3.00
2022-12-01T00:48:10.869Z,2.88
2022-12-01T00:50:40.002Z,2.72
2022-12-01T00:53:09.477Z,3.63
2022-12-01T00:55:38.552Z,3.10
2022-12-01T00:58:08.206Z,3.03
2022-12-01T01:00:38.891Z,3.22
2022-12-01T01:03:09.267Z,2.78
2022-12-01T01:05:38.644Z,3.00
2022-12-01T01:08:08.976Z,3.08
2022-12-01T01:10:40.287Z,3.03
2022-12-01T01:13:09.597Z,3.75
2022-12-01T01:15:38.863Z,3.13
2022-12-01T01:18:12.469Z,2.80
2022-12-01T01:20:41.559Z,3.38
2022-12-01T01:23:10.613Z,2.80
2022-12-01T01:25:39.635Z,3.40
2022-12-01T01:28:08.681Z,2.90
2022-12-01T01:30:40.881Z,4.93
2022-12-01T01:33:12.111Z,3.72
2022-12-01T01:35:44.022Z,2.60
2022-12-01T01:38:13.056Z,2.88
2022-12-01T01:40:45.537Z,3.80
2022-12-01T01:43:17.255Z,5.07
2022-12-01T01:45:46.368Z,3.67
2022-12-01T01:48:17.185Z,3.15
2022-12-01T01:50:46.280Z,3.72
2022-12-01T01:53:16.591Z,3.72
2022-12-01T01:55:45.801Z,3.10
2022-12-01T01:58:15.197Z,3.35
2022-12-01T02:00:46.709Z,3.22
2022-12-01T02:03:19.608Z,3.08
2022-12-01T02:05:48.944Z,3.20
2022-12-01T02:08:18.183Z,3.97
2022-12-01T02:11:05.928Z,3.22
2022-12-01T02:13:46.007Z,3.72
2022-12-01T02:16:25.844Z,3.10
2022-12-01T02:19:08.343Z,3.10
2022-12-01T02:21:49.520Z,3.22
2022-12-01T02:25:07.138Z,3.67
2022-12-01T02:28:07.605Z,3.03
2022-12-01T02:30:42.406Z,2.80
2022-12-01T02:33:19.079Z,2.97
2022-12-01T02:35:54.008Z,2.85
2022-12-01T02:38:30.992Z,3.58
2022-12-01T02:41:06.728Z,2.90
2022-12-01T02:43:45.503Z,3.30
2022-12-01T02:46:22.097Z,3.67
2022-12-01T02:48:56.168Z,3.20
2022-12-01T02:51:30.482Z,3.25
2022-12-01T02:54:01.687Z,3.05
2022-12-01T02:56:31.085Z,3.35
2022-12-01T02:59:00.026Z,3.38
2022-12-01T03:01:43.578Z,3.25
2022-12-01T03:04:35.456Z,3.75
2022-12-01T03:07:15.581Z,3.60
2022-12-01T03:09:53.248Z,3.13
2022-12-01T03:12:30.764Z,3.80
2022-12-01T03:15:08.211Z,3.40
2022-12-01T03:17:45.001Z,3.33
2022-12-01T03:20:20.200Z,3.60
2022-12-01T03:22:55.195Z,3.30
2022-12-01T03:25:27.492Z,3.45
2022-12-01T03:28:20.695Z,3.42
2022-12-01T03:30:49.416Z,3.45
2022-12-01T03:33:26.135Z,3.05
2022-12-01T03:36:01.142Z,3.30
2022-12-01T03:38:33.729Z,3.25
2022-12-01T03:41:09.006Z,3.03
2022-12-01T03:43:44.328Z,3.30
2022-12-01T03:46:23.548Z,3.25
2022-12-01T03:48:54.616Z,4.07
2022-12-01T03:51:31.756Z,3.25
2022-12-01T03:54:05.309Z,3.70
2022-12-01T03:56:39.622Z,3.67
2022-12-01T03:59:10.421Z,3.60
2022-12-01T04:01:39.581Z,3.53
2022-12-01T04:04:12.654Z,3.38
2022-12-01T04:06:44.010Z,3.22
2022-12-01T04:09:13.709Z,3.25
2022-12-01T04:12:00.356Z,3.30
2022-12-01T04:14:30.215Z,3.08
2022-12-01T04:16:59.886Z,3.78
2022-12-01T04:19:30.663Z,3.78
2022-12-01T04:21:59.887Z,3.80
2022-12-01T04:24:29.205Z,3.50
2022-12-01T04:26:58.599Z,3.50
2022-12-01T04:29:27.765Z,3.72
2022-12-01T04:31:57.056Z,4.22
2022-12-01T04:34:26.329Z,3.92
2022-12-01T04:36:56.807Z,4.65
2022-12-01T04:39:26.302Z,3.58
2022-12-01T04:41:55.283Z,3.50
2022-12-01T04:44:24.486Z,4.45
2022-12-01T04:46:54.391Z,3.75
2022-12-01T04:49:24.010Z,3.45
2022-12-01T04:51:53.407Z,3.70
2022-12-01T04:54:24.693Z,4.35
2022-12-01T04:56:54.143Z,4.00
2022-12-01T04:59:23.348Z,4.03
2022-12-01T05:01:52.470Z,4.38
2022-12-01T05:04:27.536Z,4.22
2022-12-01T05:06:57.222Z,4.28
2022-12-01T05:09:28.244Z,3.97
2022-12-01T05:12:04.021Z,4.38
2022-12-01T05:14:56.029Z,4.07
2022-12-01T05:17:25.116Z,3.67
2022-12-01T05:20:17.198Z,4.07
2022-12-01T05:23:04.949Z,3.97
2022-12-01T05:25:37.679Z,4.22
2022-12-01T05:28:08.176Z,4.40
2022-12-01T05:30:37.835Z,3.75
2022-12-01T05:33:07.611Z,4.13
2022-12-01T05:35:37.193Z,3.72
2022-12-01T05:38:08.160Z,4.80
2022-12-01T05:40:41.811Z,4.03
2022-12-01T05:43:13.536Z,4.35
2022-12-01T05:45:42.998Z,4.28
2022-12-01T05:48:12.497Z,4.43
2022-12-01T05:50:44.373Z,4.78
2022-12-01T05:55:53.369Z,4.10
2022-12-01T05:58:22.445Z,5.10
2022-12-01T06:00:51.898Z,4.40
2022-12-01T06:03:21.562Z,4.35
2022-12-01T06:05:54.016Z,4.15
2022-12-01T06:08:23.338Z,4.78
2022-12-01T06:11:22.777Z,3.83
2022-12-01T06:13:52.572Z,4.50
2022-12-01T06:16:22.548Z,3.88
2022-12-01T06:18:51.933Z,4.55
2022-12-01T06:21:24.045Z,4.10
2022-12-01T06:23:53.246Z,4.53
2022-12-01T06:26:23.699Z,4.40
2022-12-01T06:29:04.987Z,4.03
2022-12-01T06:31:34.064Z,4.93
2022-12-01T06:34:03.237Z,4.55
2022-12-01T06:36:33.187Z,4.47
2022-12-01T06:39:02.627Z,4.90
2022-12-01T06:41:33.366Z,4.65
2022-12-01T06:44:03.155Z,4.97
2022-12-01T06:47:12.521Z,4.38
2022-12-01T06:50:04.823Z,4.95
2022-12-01T06:52:34.326Z,4.35
2022-12-01T06:55:04.016Z,4.82
2022-12-01T06:57:34.674Z,4.53
2022-12-01T07:00:05.850Z,4.65
2022-12-01T07:02:35.832Z,4.63
2022-12-01T07:05:05.842Z,5.85
2022-12-01T07:07:40.806Z,5.93
2022-12-01T07:10:13.298Z,4.95
2022-12-01T07:12:46.143Z,5.15
2022-12-01T07:15:16.034Z,4.97
2022-12-01T07:17:45.871Z,5.60
2022-12-01T07:20:15.120Z,6.07
2022-12-01T07:22:44.520Z,5.50
2022-12-01T07:25:14.069Z,5.60
2022-12-01T07:27:44.795Z,5.75
2022-12-01T07:30:16.953Z,5.13
2022-12-01T07:32:46.139Z,5.78
2022-12-01T07:35:15.702Z,6.65
2022-12-01T07:37:44.936Z,4.88
2022-12-01T07:40:15.137Z,5.40
2022-12-01T07:42:45.689Z,5.70
2022-12-01T07:45:15.072Z,5.78
2022-12-01T07:47:45.570Z,5.68
2022-12-01T07:50:15.178Z,5.93
2022-12-01T07:52:46.737Z,5.75
2022-12-01T07:55:16.566Z,5.88
2022-12-01T07:57:48.751Z,5.65
2022-12-01T08:00:18.562Z,6.57
2022-12-01T08:02:50.216Z,5.55
2022-12-01T08:05:19.755Z,5.60
2022-12-01T08:07:57.605Z,6.28
2022-12-01T08:10:26.949Z,6.57
2022-12-01T08:12:57.343Z,6.07
2022-12-01T08:15:27.510Z,6.85
2022-12-01T08:18:03.671Z,7.18
2022-12-01T08:20:33.562Z,7.18
2022-12-01T08:23:03.327Z,6.18
2022-12-01T08:25:33.637Z,7.43
2022-12-01T08:28:04.870Z,7.43
2022-12-01T08:30:34.463Z,7.97
2022-12-01T08:33:03.984Z,7.82
2022-12-01T08:35:37.280Z,7.95
2022-12-01T08:38:06.637Z,7.47
2022-12-01T08:40:38.679Z,7.00
2022-12-01T08:43:15.197Z,6.80
2022-12-01T08:45:52.875Z,8.52
2022-12-01T08:48:23.607Z,7.28
2022-12-01T08:50:53.689Z,7.38
2022-12-01T08:53:22.928Z,6.95
2022-12-01T15:17:27.330Z,6.10
2022-12-01T15:19:56.704Z,6.60
2022-12-01T15:22:31.001Z,6.13
2022-12-01T15:25:09.746Z,5.63
2022-12-01T15:27:40.996Z,5.93
2022-12-01T15:30:16.167Z,5.10
2022-12-01T15:32:46.942Z,5.65
2022-12-01T15:35:21.714Z,4.75
2022-12-01T15:37:54.024Z,5.60
2022-12-01T15:43:23.910Z,4.50
2022-12-01T15:45:59.708Z,6.65
2022-12-01T15:48:34.798Z,5.65
2022-12-01T15:51:11.100Z,5.80
2022-12-01T15:53:48.607Z,5.60
2022-12-01T15:56:27.108Z,5.75
2022-12-01T15:59:09.675Z,5.80
2022-12-01T16:01:39.847Z,6.32
2022-12-01T16:04:32.400Z,6.20
2022-12-01T16:07:12.559Z,7.30
2022-12-01T16:10:25.726Z,6.78
2022-12-01T16:12:54.630Z,6.38
2022-12-01T16:15:24.077Z,6.22
2022-12-01T16:17:55.867Z,6.15
2022-12-01T16:20:33.855Z,6.30
2022-12-01T16:23:05.049Z,5.57
2022-12-01T16:25:39.946Z,5.78
2022-12-01T16:30:48.928Z,5.38
2022-12-01T16:33:20.330Z,6.32
2022-12-01T16:35:52.340Z,6.00
2022-12-01T16:38:53.749Z,5.70
2022-12-01T16:41:37.710Z,6.47
2022-12-01T16:44:28.246Z,7.22
2022-12-01T16:46:57.674Z,7.63
2022-12-01T16:49:26.773Z,7.35
2022-12-01T16:51:59.266Z,7.35
2022-12-01T16:54:30.212Z,7.43
2022-12-01T16:57:00.265Z,7.97
2022-12-01T16:59:31.163Z,8.55
2022-12-01T17:02:01.853Z,9.02
2022-12-01T17:04:31.603Z,9.38
2022-12-01T17:07:02.034Z,8.05
2022-12-01T17:09:31.163Z,8.73
2022-12-01T17:12:00.156Z,8.98
2022-12-01T17:14:30.458Z,8.73
2022-12-01T17:16:59.809Z,9.48
2022-12-01T17:19:29.212Z,9.45
2022-12-01T17:22:01.347Z,9.63
2022-12-01T17:24:33.382Z,9.15
2022-12-01T17:27:05.561Z,9.95
2022-12-01T17:29:38.609Z,9.20
2022-12-01T17:32:14.847Z,10.27
2022-12-01T17:34:46.947Z,10.48
2022-12-01T17:37:20.868Z,9.35
2022-12-01T17:39:53.581Z,9.25
2022-12-01T17:42:23.908Z,9.00
2022-12-01T17:44:53.193Z,9.00
2022-12-01T17:47:23.390Z,9.20
2022-12-01T17:49:55.496Z,9.07
2022-12-01T17:52:28.393Z,9.00
2022-12-01T17:55:00.309Z,10.20
2022-12-01T17:57:30.034Z,9.68
2022-12-01T18:00:01.758Z,9.60
2022-12-01T18:02:40.004Z,11.63
2022-12-01T18:05:11.677Z,9.93
2022-12-01T18:07:51.493Z,9.55
2022-12-01T18:10:26.403Z,10.05
2022-12-01T18:13:23.296Z,9.55
2022-12-01T18:15:55.980Z,10.30
2022-12-01T18:18:42.613Z,10.48
2022-12-01T18:21:15.165Z,9.88
2022-12-01T18:23:55.066Z,10.02
2022-12-01T18:26:27.195Z,9.43
2022-12-01T18:28:57.118Z,10.07
2022-12-01T18:31:27.523Z,9.82
2022-12-01T18:34:02.745Z,10.40
2022-12-01T18:36:34.446Z,9.73
2022-12-01T18:39:07.606Z,10.82
2022-12-01T18:41:44.203Z,10.37
2022-12-01T18:44:20.985Z,9.15
2022-12-01T18:46:58.498Z,9.02
2022-12-01T18:49:38.621Z,8.93
2022-12-01T18:52:14.139Z,9.85
2022-12-01T18:54:43.601Z,8.82
2022-12-01T18:57:19.373Z,8.77
2022-12-01T18:59:51.082Z,8.02
2022-12-01T19:02:21.702Z,8.47
2022-12-01T19:04:55.824Z,8.90
2022-12-01T19:07:30.118Z,9.48
2022-12-01T19:10:03.013Z,8.98
2022-12-01T19:12:40.950Z,10.40
2022-12-01T19:15:35.805Z,8.50
2022-12-01T19:18:21.045Z,8.40
2022-12-01T19:20:55.580Z,8.13
2022-12-01T19:23:25.360Z,9.80
2022-12-01T19:26:06.438Z,8.93
2022-12-01T19:28:42.312Z,8.75
2022-12-01T19:31:20.283Z,8.88
2022-12-01T19:33:55.873Z,9.68
2022-12-01T19:36:29.787Z,9.85
2022-12-01T19:39:04.038Z,11.73
2022-12-01T19:41:42.352Z,11.07
2022-12-01T19:44:31.148Z,9.77
2022-12-01T19:47:33.507Z,9.93
2022-12-01T19:50:18.902Z,10.55
2022-12-01T19:52:51.568Z,9.43
2022-12-01T19:55:22.128Z,10.48
2022-12-01T19:57:59.825Z,9.73
2022-12-01T20:00:40.788Z,8.98
2022-12-01T20:03:13.651Z,9.70
2022-12-01T20:06:11.441Z,10.80
2022-12-01T20:08:42.401Z,9.88
2022-12-01T20:11:20.479Z,9.32
2022-12-01T20:13:54.165Z,10.20
2022-12-01T20:16:30.618Z,10.60
2022-12-01T20:19:05.263Z,9.63
2022-12-01T20:21:47.750Z,9.75
2022-12-01T20:24:21.839Z,10.10
2022-12-01T20:26:56.804Z,9.23
2022-12-01T20:29:27.756Z,9.43
2022-12-01T20:32:04.181Z,9.68
2022-12-01T20:34:42.125Z,8.65
2022-12-01T20:37:21.401Z,10.80
2022-12-01T20:39:54.453Z,9.48
2022-12-01T20:42:27.198Z,9.27
2022-12-01T20:44:59.542Z,8.55
2022-12-01T20:47:42.591Z,9.02
2022-12-01T20:50:19.004Z,9.18
2022-12-01T20:52:58.280Z,8.68
2022-12-01T20:55:42.778Z,7.90
2022-12-01T20:58:21.486Z,7.72
2022-12-01T21:01:25.312Z,8.52
2022-12-01T21:04:05.900Z,8.07
2022-12-01T21:07:04.824Z,9.25
2022-12-01T21:09:37.934Z,8.18
2022-12-01T21:12:40.697Z,7.90
2022-12-01T21:15:22.137Z,8.27
2022-12-01T21:17:57.058Z,8.18
2022-12-01T21:20:38.390Z,8.43
2022-12-01T21:23:42.386Z,7.82
2022-12-01T21:26:17.955Z,9.90
2022-12-01T21:28:57.061Z,8.70
2022-12-01T21:31:48.821Z,8.95
2022-12-01T21:34:40.249Z,8.48
2022-12-01T21:37:25.119Z,9.10
2022-12-01T21:40:01.440Z,8.82
2022-12-01T21:42:34.373Z,7.43
2022-12-01T21:45:07.831Z,8.40
2022-12-01T21:47:37.286Z,7.18
2022-12-01T21:50:15.636Z,6.60
2022-12-01T21:52:49.698Z,6.55
2022-12-01T21:55:39.502Z,6.85
2022-12-01T21:58:35.895Z,6.05
2022-12-01T22:01:18.636Z,5.53
2022-12-01T22:04:00.523Z,5.22
2022-12-01T22:06:39.829Z,5.78
2022-12-01T22:09:24.441Z,6.10
2022-12-01T22:11:56.192Z,5.43
2022-12-01T22:27:36.363Z,6.13
2022-12-01T22:30:18.743Z,5.63
2022-12-01T22:32:57.029Z,5.68
2022-12-01T22:35:32.643Z,5.85
2022-12-01T22:38:16.578Z,5.68
2022-12-01T22:40:54.794Z,4.72
2022-12-01T22:43:31.135Z,6.28
2022-12-01T22:46:08.457Z,5.72
2022-12-01T22:48:40.361Z,5.32
2022-12-01T22:51:28.502Z,5.53
2022-12-01T22:54:12.141Z,4.88
2022-12-01T22:57:14.459Z,4.50
2022-12-01T22:59:54.790Z,4.90
2022-12-01T23:02:30.620Z,4.72
2022-12-01T23:05:02.518Z,5.15
2022-12-01T23:07:36.174Z,5.15
2022-12-01T23:10:17.327Z,5.10
2022-12-01T23:12:48.988Z,4.70
2022-12-01T23:15:34.696Z,4.93
2022-12-01T23:18:12.852Z,5.32
2022-12-01T23:20:48.377Z,5.15
2022-12-01T23:23:20.587Z,4.78
2022-12-01T23:25:51.763Z,5.15
2022-12-01T23:28:21.603Z,4.63
2022-12-01T23:30:55.736Z,4.43
2022-12-01T23:33:29.222Z,4.43
2022-12-01T23:36:02.078Z,4.60
2022-12-01T23:38:37.337Z,4.95
2022-12-01T23:41:08.405Z,5.30
2022-12-01T23:43:41.549Z,4.63
2022-12-01T23:46:15.122Z,4.65
2022-12-01T23:48:46.791Z,5.10
2022-12-01T23:51:22.408Z,4.47
2022-12-01T23:53:53.067Z,4.65
2022-12-01T23:56:24.674Z,4.00
2022-12-01T23:58:54.803Z,3.90
